sensor_id;sensor_type;location;lat;lon;timestamp;P1;durP1;ratioP1;P2;durP2;ratioP2
62687;SDS011;48752;51.056;17.056;2023-06-19T00:01:30;12.85;;;9.90;;
62687;SDS011;48752;51.056;17.056;2023-06-19T00:03:55;14.68;;;9.85;;
62687;SDS011;48752;51.056;17.056;2023-06-19T00:06:22;11.98;;;9.57;;
62687;SDS011;48752;51.056;17.056;2023-06-19T00:08:49;13.32;;;10.02;;
62687;SDS011;48752;51.056;17.056;2023-06-19T00:11:17;12.77;;;10.18;;
62687;SDS011;48752;51.056;17.056;2023-06-19T00:13:43;12.40;;;10.10;;
62687;SDS011;48752;51.056;17.056;2023-06-19T00:16:09;12.85;;;10.63;;
62687;SDS011;48752;51.056;17.056;2023-06-19T00:18:34;16.80;;;11.40;;
62687;SDS011;48752;51.056;17.056;2023-06-19T00:21:04;13.23;;;10.43;;
62687;SDS011;48752;51.056;17.056;2023-06-19T00:23:31;14.45;;;10.60;;
62687;SDS011;48752;51.056;17.056;2023-06-19T00:25:57;14.70;;;11.25;;
62687;SDS011;48752;51.056;17.056;2023-06-19T00:28:27;14.80;;;11.30;;
62687;SDS011;48752;51.056;17.056;2023-06-19T00:31:03;15.70;;;11.00;;
62687;SDS011;48752;51.056;17.056;2023-06-19T00:33:31;14.48;;;11.32;;
62687;SDS011;48752;51.056;17.056;2023-06-19T00:35:57;13.97;;;10.90;;
62687;SDS011;48752;51.056;17.056;2023-06-19T00:38:22;19.92;;;10.93;;
62687;SDS011;48752;51.056;17.056;2023-06-19T00:40:49;13.65;;;11.15;;
62687;SDS011;48752;51.056;17.056;2023-06-19T00:43:15;15.60;;;11.32;;
62687;SDS011;48752;51.056;17.056;2023-06-19T00:45:42;14.00;;;11.70;;
62687;SDS011;48752;51.056;17.056;2023-06-19T00:48:08;18.45;;;12.43;;
62687;SDS011;48752;51.056;17.056;2023-06-19T00:50:34;17.02;;;11.32;;
62687;SDS011;48752;51.056;17.056;2023-06-19T00:53:03;16.95;;;12.07;;
62687;SDS011;48752;51.056;17.056;2023-06-19T00:55:30;17.33;;;12.30;;
62687;SDS011;48752;51.056;17.056;2023-06-19T00:58:05;15.82;;;12.18;;
62687;SDS011;48752;51.056;17.056;2023-06-19T01:00:38;13.10;;;11.40;;
62687;SDS011;48752;51.056;17.056;2023-06-19T01:03:03;14.43;;;11.73;;
62687;SDS011;48752;51.056;17.056;2023-06-19T01:05:30;15.00;;;11.45;;
62687;SDS011;48752;51.056;17.056;2023-06-19T01:10:23;18.42;;;11.15;;
62687;SDS011;48752;51.056;17.056;2023-06-19T01:12:53;14.10;;;11.15;;
62687;SDS011;48752;51.056;17.056;2023-06-19T01:15:22;15.00;;;11.35;;
62687;SDS011;48752;51.056;17.056;2023-06-19T01:17:49;15.13;;;11.40;;
62687;SDS011;48752;51.056;17.056;2023-06-19T01:20:20;16.63;;;11.57;;
62687;SDS011;48752;51.056;17.056;2023-06-19T01:25:30;18.55;;;12.25;;
62687;SDS011;48752;51.056;17.056;2023-06-19T01:28:02;15.38;;;11.77;;
62687;SDS011;48752;51.056;17.056;2023-06-19T01:30:29;17.58;;;12.60;;
62687;SDS011;48752;51.056;17.056;2023-06-19T01:33:03;15.13;;;12.13;;
62687;SDS011;48752;51.056;17.056;2023-06-19T01:35:30;16.80;;;11.93;;
62687;SDS011;48752;51.056;17.056;2023-06-19T01:37:56;18.30;;;12.07;;
62687;SDS011;48752;51.056;17.056;2023-06-19T01:40:22;18.52;;;12.32;;
62687;SDS011;48752;51.056;17.056;2023-06-19T01:42:51;17.40;;;12.02;;
62687;SDS011;48752;51.056;17.056;2023-06-19T01:45:16;17.42;;;12.93;;
62687;SDS011;48752;51.056;17.056;2023-06-19T01:47:43;15.98;;;12.50;;
62687;SDS011;48752;51.056;17.056;2023-06-19T01:50:10;15.82;;;11.73;;
62687;SDS011;48752;51.056;17.056;2023-06-19T01:52:38;18.85;;;12.00;;
62687;SDS011;48752;51.056;17.056;2023-06-19T01:55:03;17.02;;;12.65;;
62687;SDS011;48752;51.056;17.056;2023-06-19T01:57:29;16.52;;;12.68;;
62687;SDS011;48752;51.056;17.056;2023-06-19T01:59:55;17.20;;;11.82;;
62687;SDS011;48752;51.056;17.056;2023-06-19T02:02:21;18.58;;;13.10;;
62687;SDS011;48752;51.056;17.056;2023-06-19T02:04:47;18.23;;;12.65;;
62687;SDS011;48752;51.056;17.056;2023-06-19T02:07:14;17.70;;;12.30;;
62687;SDS011;48752;51.056;17.056;2023-06-19T02:09:39;16.52;;;12.43;;
62687;SDS011;48752;51.056;17.056;2023-06-19T02:12:06;17.17;;;12.32;;
62687;SDS011;48752;51.056;17.056;2023-06-19T02:14:31;18.30;;;12.35;;
62687;SDS011;48752;51.056;17.056;2023-06-19T02:16:57;16.13;;;12.40;;
62687;SDS011;48752;51.056;17.056;2023-06-19T02:19:23;16.20;;;12.88;;
62687;SDS011;48752;51.056;17.056;2023-06-19T02:21:50;17.00;;;12.40;;
62687;SDS011;48752;51.056;17.056;2023-06-19T02:24:17;18.05;;;12.68;;
62687;SDS011;48752;51.056;17.056;2023-06-19T02:26:44;18.17;;;12.38;;
62687;SDS011;48752;51.056;17.056;2023-06-19T02:29:09;18.05;;;12.63;;
62687;SDS011;48752;51.056;17.056;2023-06-19T02:31:38;14.85;;;11.25;;
62687;SDS011;48752;51.056;17.056;2023-06-19T02:34:04;13.23;;;10.68;;
62687;SDS011;48752;51.056;17.056;2023-06-19T02:36:30;15.40;;;11.88;;
62687;SDS011;48752;51.056;17.056;2023-06-19T02:38:57;16.90;;;11.38;;
62687;SDS011;48752;51.056;17.056;2023-06-19T02:41:24;18.45;;;14.07;;
62687;SDS011;48752;51.056;17.056;2023-06-19T02:43:50;26.35;;;20.92;;
62687;SDS011;48752;51.056;17.056;2023-06-19T02:46:15;18.45;;;12.45;;
62687;SDS011;48752;51.056;17.056;2023-06-19T02:48:41;21.57;;;13.77;;
62687;SDS011;48752;51.056;17.056;2023-06-19T02:51:08;15.25;;;12.27;;
62687;SDS011;48752;51.056;17.056;2023-06-19T02:53:33;17.48;;;12.68;;
62687;SDS011;48752;51.056;17.056;2023-06-19T02:56:00;19.55;;;12.95;;
62687;SDS011;48752;51.056;17.056;2023-06-19T02:58:27;17.60;;;12.55;;
62687;SDS011;48752;51.056;17.056;2023-06-19T03:00:53;15.77;;;12.57;;
62687;SDS011;48752;51.056;17.056;2023-06-19T03:03:18;17.38;;;12.57;;
62687;SDS011;48752;51.056;17.056;2023-06-19T03:05:44;18.13;;;13.43;;
62687;SDS011;48752;51.056;17.056;2023-06-19T03:08:10;18.20;;;13.45;;
62687;SDS011;48752;51.056;17.056;2023-06-19T03:10:37;16.30;;;13.25;;
62687;SDS011;48752;51.056;17.056;2023-06-19T03:13:02;27.45;;;20.33;;
62687;SDS011;48752;51.056;17.056;2023-06-19T03:15:30;18.40;;;13.30;;
62687;SDS011;48752;51.056;17.056;2023-06-19T03:17:55;19.07;;;12.13;;
62687;SDS011;48752;51.056;17.056;2023-06-19T03:20:23;18.88;;;13.48;;
62687;SDS011;48752;51.056;17.056;2023-06-19T03:22:49;15.88;;;12.85;;
62687;SDS011;48752;51.056;17.056;2023-06-19T03:25:16;16.40;;;13.23;;
62687;SDS011;48752;51.056;17.056;2023-06-19T03:27:42;19.88;;;13.95;;
62687;SDS011;48752;51.056;17.056;2023-06-19T03:30:07;19.55;;;14.07;;
62687;SDS011;48752;51.056;17.056;2023-06-19T03:32:34;18.67;;;14.57;;
62687;SDS011;48752;51.056;17.056;2023-06-19T03:34:59;20.73;;;14.02;;
62687;SDS011;48752;51.056;17.056;2023-06-19T03:37:26;23.77;;;15.75;;
62687;SDS011;48752;51.056;17.056;2023-06-19T03:39:52;21.27;;;15.13;;
62687;SDS011;48752;51.056;17.056;2023-06-19T03:42:18;22.38;;;15.15;;
62687;SDS011;48752;51.056;17.056;2023-06-19T03:44:45;19.00;;;14.07;;
62687;SDS011;48752;51.056;17.056;2023-06-19T03:47:10;19.60;;;14.38;;
62687;SDS011;48752;51.056;17.056;2023-06-19T03:52:05;18.75;;;13.15;;
62687;SDS011;48752;51.056;17.056;2023-06-19T03:54:31;17.48;;;13.35;;
62687;SDS011;48752;51.056;17.056;2023-06-19T03:56:56;19.60;;;13.85;;
62687;SDS011;48752;51.056;17.056;2023-06-19T03:59:22;18.02;;;11.90;;
62687;SDS011;48752;51.056;17.056;2023-06-19T04:01:48;15.20;;;11.52;;
62687;SDS011;48752;51.056;17.056;2023-06-19T04:04:13;16.03;;;11.83;;
62687;SDS011;48752;51.056;17.056;2023-06-19T04:06:39;13.57;;;11.27;;
62687;SDS011;48752;51.056;17.056;2023-06-19T04:09:05;15.67;;;11.97;;
62687;SDS011;48752;51.056;17.056;2023-06-19T04:11:31;16.02;;;12.20;;
62687;SDS011;48752;51.056;17.056;2023-06-19T04:13:56;17.80;;;11.93;;
62687;SDS011;48752;51.056;17.056;2023-06-19T04:16:22;14.63;;;11.13;;
62687;SDS011;48752;51.056;17.056;2023-06-19T04:18:48;13.32;;;10.90;;
62687;SDS011;48752;51.056;17.056;2023-06-19T04:21:14;14.88;;;10.90;;
62687;SDS011;48752;51.056;17.056;2023-06-19T04:23:41;15.35;;;11.68;;
62687;SDS011;48752;51.056;17.056;2023-06-19T04:26:08;11.95;;;9.40;;
62687;SDS011;48752;51.056;17.056;2023-06-19T04:28:36;13.75;;;10.07;;
62687;SDS011;48752;51.056;17.056;2023-06-19T04:31:02;13.75;;;10.50;;
62687;SDS011;48752;51.056;17.056;2023-06-19T04:33:28;14.50;;;11.30;;
62687;SDS011;48752;51.056;17.056;2023-06-19T04:35:57;13.05;;;10.10;;
62687;SDS011;48752;51.056;17.056;2023-06-19T04:38:22;16.92;;;10.70;;
62687;SDS011;48752;51.056;17.056;2023-06-19T04:40:52;16.85;;;11.07;;
62687;SDS011;48752;51.056;17.056;2023-06-19T04:43:18;14.73;;;11.60;;
62687;SDS011;48752;51.056;17.056;2023-06-19T04:45:44;15.60;;;11.50;;
62687;SDS011;48752;51.056;17.056;2023-06-19T04:48:10;12.95;;;10.88;;
62687;SDS011;48752;51.056;17.056;2023-06-19T04:50:37;14.45;;;10.55;;
62687;SDS011;48752;51.056;17.056;2023-06-19T04:53:02;16.23;;;11.02;;
62687;SDS011;48752;51.056;17.056;2023-06-19T04:55:29;15.52;;;11.65;;
62687;SDS011;48752;51.056;17.056;2023-06-19T04:57:55;14.27;;;11.65;;
62687;SDS011;48752;51.056;17.056;2023-06-19T05:00:21;17.42;;;12.60;;
62687;SDS011;48752;51.056;17.056;2023-06-19T05:02:59;13.23;;;11.82;;
62687;SDS011;48752;51.056;17.056;2023-06-19T05:05:27;17.30;;;13.43;;
62687;SDS011;48752;51.056;17.056;2023-06-19T05:07:53;16.23;;;12.07;;
62687;SDS011;48752;51.056;17.056;2023-06-19T05:10:23;18.80;;;12.02;;
62687;SDS011;48752;51.056;17.056;2023-06-19T05:12:48;19.33;;;12.95;;
62687;SDS011;48752;51.056;17.056;2023-06-19T05:15:14;17.10;;;12.88;;
62687;SDS011;48752;51.056;17.056;2023-06-19T05:17:41;21.92;;;12.73;;
62687;SDS011;48752;51.056;17.056;2023-06-19T05:20:07;25.23;;;12.15;;
62687;SDS011;48752;51.056;17.056;2023-06-19T05:22:33;21.83;;;12.65;;
62687;SDS011;48752;51.056;17.056;2023-06-19T05:25:05;20.35;;;11.35;;
62687;SDS011;48752;51.056;17.056;2023-06-19T05:32:30;14.98;;;11.13;;
62687;SDS011;48752;51.056;17.056;2023-06-19T05:34:55;12.73;;;10.37;;
62687;SDS011;48752;51.056;17.056;2023-06-19T05:37:23;15.52;;;11.15;;
62687;SDS011;48752;51.056;17.056;2023-06-19T05:39:53;13.25;;;11.35;;
62687;SDS011;48752;51.056;17.056;2023-06-19T05:42:19;16.70;;;10.57;;
62687;SDS011;48752;51.056;17.056;2023-06-19T05:44:54;12.80;;;10.93;;
62687;SDS011;48752;51.056;17.056;2023-06-19T05:47:19;12.07;;;10.00;;
62687;SDS011;48752;51.056;17.056;2023-06-19T05:49:45;12.93;;;10.30;;
62687;SDS011;48752;51.056;17.056;2023-06-19T05:52:30;10.38;;;8.52;;
62687;SDS011;48752;51.056;17.056;2023-06-19T05:54:56;10.88;;;8.40;;
62687;SDS011;48752;51.056;17.056;2023-06-19T05:57:23;10.40;;;9.30;;
62687;SDS011;48752;51.056;17.056;2023-06-19T05:59:51;12.77;;;9.35;;
62687;SDS011;48752;51.056;17.056;2023-06-19T06:02:18;11.93;;;9.23;;
62687;SDS011;48752;51.056;17.056;2023-06-19T06:04:46;11.05;;;9.85;;
62687;SDS011;48752;51.056;17.056;2023-06-19T06:07:12;10.65;;;8.82;;
62687;SDS011;48752;51.056;17.056;2023-06-19T06:09:39;10.32;;;8.63;;
62687;SDS011;48752;51.056;17.056;2023-06-19T06:12:05;9.45;;;8.60;;
62687;SDS011;48752;51.056;17.056;2023-06-19T06:14:32;10.93;;;8.02;;
62687;SDS011;48752;51.056;17.056;2023-06-19T06:16:57;10.63;;;8.18;;
62687;SDS011;48752;51.056;17.056;2023-06-19T06:19:23;9.02;;;8.13;;
62687;SDS011;48752;51.056;17.056;2023-06-19T06:21:50;11.98;;;8.75;;
62687;SDS011;48752;51.056;17.056;2023-06-19T06:24:16;10.25;;;8.85;;
62687;SDS011;48752;51.056;17.056;2023-06-19T06:26:44;10.13;;;7.80;;
62687;SDS011;48752;51.056;17.056;2023-06-19T06:29:11;12.88;;;9.00;;
62687;SDS011;48752;51.056;17.056;2023-06-19T06:31:37;9.88;;;8.63;;
62687;SDS011;48752;51.056;17.056;2023-06-19T06:34:04;10.50;;;8.65;;
62687;SDS011;48752;51.056;17.056;2023-06-19T06:36:30;11.85;;;9.23;;
62687;SDS011;48752;51.056;17.056;2023-06-19T06:38:55;10.68;;;8.85;;
62687;SDS011;48752;51.056;17.056;2023-06-19T06:41:22;13.50;;;8.27;;
62687;SDS011;48752;51.056;17.056;2023-06-19T06:43:47;10.32;;;8.75;;
62687;SDS011;48752;51.056;17.056;2023-06-19T06:46:13;12.65;;;9.75;;
62687;SDS011;48752;51.056;17.056;2023-06-19T06:48:40;12.60;;;8.95;;
62687;SDS011;48752;51.056;17.056;2023-06-19T06:51:05;11.90;;;9.15;;
62687;SDS011;48752;51.056;17.056;2023-06-19T06:53:32;11.32;;;9.15;;
62687;SDS011;48752;51.056;17.056;2023-06-19T06:56:00;10.68;;;8.07;;
62687;SDS011;48752;51.056;17.056;2023-06-19T06:58:27;10.57;;;9.48;;
62687;SDS011;48752;51.056;17.056;2023-06-19T07:00:52;12.82;;;9.63;;
62687;SDS011;48752;51.056;17.056;2023-06-19T07:03:19;10.82;;;8.80;;
62687;SDS011;48752;51.056;17.056;2023-06-19T07:05:44;11.50;;;9.32;;
62687;SDS011;48752;51.056;17.056;2023-06-19T07:08:10;10.48;;;9.48;;
62687;SDS011;48752;51.056;17.056;2023-06-19T07:10:37;14.27;;;9.80;;
62687;SDS011;48752;51.056;17.056;2023-06-19T07:13:03;9.80;;;8.75;;
62687;SDS011;48752;51.056;17.056;2023-06-19T07:15:29;14.88;;;9.57;;
62687;SDS011;48752;51.056;17.056;2023-06-19T07:17:54;11.67;;;9.33;;
62687;SDS011;48752;51.056;17.056;2023-06-19T07:20:21;13.57;;;8.88;;
62687;SDS011;48752;51.056;17.056;2023-06-19T07:22:50;11.45;;;8.48;;
62687;SDS011;48752;51.056;17.056;2023-06-19T07:25:24;10.50;;;9.48;;
62687;SDS011;48752;51.056;17.056;2023-06-19T07:27:51;15.13;;;8.93;;
62687;SDS011;48752;51.056;17.056;2023-06-19T07:30:17;10.50;;;8.48;;
62687;SDS011;48752;51.056;17.056;2023-06-19T07:32:45;9.68;;;8.55;;
62687;SDS011;48752;51.056;17.056;2023-06-19T07:35:11;9.45;;;8.52;;
62687;SDS011;48752;51.056;17.056;2023-06-19T07:37:38;10.02;;;9.02;;
62687;SDS011;48752;51.056;17.056;2023-06-19T07:40:04;10.23;;;8.50;;
62687;SDS011;48752;51.056;17.056;2023-06-19T07:42:29;10.82;;;8.43;;
62687;SDS011;48752;51.056;17.056;2023-06-19T07:44:54;9.30;;;7.67;;
62687;SDS011;48752;51.056;17.056;2023-06-19T07:47:20;9.73;;;8.03;;
62687;SDS011;48752;51.056;17.056;2023-06-19T07:49:46;8.95;;;7.97;;
62687;SDS011;48752;51.056;17.056;2023-06-19T07:52:12;8.80;;;7.35;;
62687;SDS011;48752;51.056;17.056;2023-06-19T07:54:55;10.27;;;8.23;;
62687;SDS011;48752;51.056;17.056;2023-06-19T07:57:22;10.55;;;8.10;;
62687;SDS011;48752;51.056;17.056;2023-06-19T08:00:07;8.52;;;7.57;;
62687;SDS011;48752;51.056;17.056;2023-06-19T08:02:36;8.63;;;7.53;;
62687;SDS011;48752;51.056;17.056;2023-06-19T08:05:02;10.00;;;8.23;;
62687;SDS011;48752;51.056;17.056;2023-06-19T08:07:29;10.95;;;7.30;;
62687;SDS011;48752;51.056;17.056;2023-06-19T08:09:54;8.63;;;7.32;;
62687;SDS011;48752;51.056;17.056;2023-06-19T08:12:20;10.00;;;7.97;;
62687;SDS011;48752;51.056;17.056;2023-06-19T08:14:45;9.48;;;7.05;;
62687;SDS011;48752;51.056;17.056;2023-06-19T08:17:10;9.83;;;6.97;;
62687;SDS011;48752;51.056;17.056;2023-06-19T08:19:36;9.93;;;6.93;;
62687;SDS011;48752;51.056;17.056;2023-06-19T08:22:05;11.52;;;7.53;;
62687;SDS011;48752;51.056;17.056;2023-06-19T08:24:31;7.60;;;6.78;;
62687;SDS011;48752;51.056;17.056;2023-06-19T08:26:56;8.27;;;6.60;;
62687;SDS011;48752;51.056;17.056;2023-06-19T08:29:21;10.77;;;7.43;;
62687;SDS011;48752;51.056;17.056;2023-06-19T08:31:47;7.43;;;6.72;;
62687;SDS011;48752;51.056;17.056;2023-06-19T08:34:14;8.80;;;7.10;;
62687;SDS011;48752;51.056;17.056;2023-06-19T08:36:40;8.52;;;7.00;;
62687;SDS011;48752;51.056;17.056;2023-06-19T08:39:09;8.05;;;6.30;;
62687;SDS011;48752;51.056;17.056;2023-06-19T08:41:38;9.57;;;6.20;;
62687;SDS011;48752;51.056;17.056;2023-06-19T08:44:04;9.68;;;6.63;;
62687;SDS011;48752;51.056;17.056;2023-06-19T08:46:30;9.23;;;6.40;;
62687;SDS011;48752;51.056;17.056;2023-06-19T08:48:55;6.40;;;5.80;;
62687;SDS011;48752;51.056;17.056;2023-06-19T08:51:21;7.78;;;6.20;;
62687;SDS011;48752;51.056;17.056;2023-06-19T08:53:48;7.10;;;6.40;;
62687;SDS011;48752;51.056;17.056;2023-06-19T08:56:17;6.53;;;5.78;;
62687;SDS011;48752;51.056;17.056;2023-06-19T08:58:42;8.80;;;5.30;;
62687;SDS011;48752;51.056;17.056;2023-06-19T09:01:07;9.70;;;5.15;;
62687;SDS011;48752;51.056;17.056;2023-06-19T09:03:33;6.68;;;5.38;;
62687;SDS011;48752;51.056;17.056;2023-06-19T09:06:08;6.10;;;4.50;;
62687;SDS011;48752;51.056;17.056;2023-06-19T09:08:34;5.88;;;4.13;;
62687;SDS011;48752;51.056;17.056;2023-06-19T09:11:02;6.03;;;4.65;;
62687;SDS011;48752;51.056;17.056;2023-06-19T09:13:28;5.43;;;4.30;;
62687;SDS011;48752;51.056;17.056;2023-06-19T09:16:01;5.63;;;4.43;;
62687;SDS011;48752;51.056;17.056;2023-06-19T09:18:28;5.28;;;4.57;;
62687;SDS011;48752;51.056;17.056;2023-06-19T09:20:54;4.82;;;4.30;;
62687;SDS011;48752;51.056;17.056;2023-06-19T09:23:20;6.65;;;4.22;;
62687;SDS011;48752;51.056;17.056;2023-06-19T09:25:49;5.85;;;4.03;;
62687;SDS011;48752;51.056;17.056;2023-06-19T09:28:18;6.22;;;4.30;;
62687;SDS011;48752;51.056;17.056;2023-06-19T09:30:54;4.47;;;4.07;;
62687;SDS011;48752;51.056;17.056;2023-06-19T09:33:20;4.50;;;3.90;;
62687;SDS011;48752;51.056;17.056;2023-06-19T09:35:46;4.45;;;4.03;;
62687;SDS011;48752;51.056;17.056;2023-06-19T09:38:12;4.20;;;3.90;;
62687;SDS011;48752;51.056;17.056;2023-06-19T09:40:37;7.47;;;3.70;;
62687;SDS011;48752;51.056;17.056;2023-06-19T09:43:03;4.65;;;3.95;;
62687;SDS011;48752;51.056;17.056;2023-06-19T09:45:29;5.80;;;4.72;;
62687;SDS011;48752;51.056;17.056;2023-06-19T09:47:56;3.90;;;3.50;;
62687;SDS011;48752;51.056;17.056;2023-06-19T09:50:22;4.88;;;4.13;;
62687;SDS011;48752;51.056;17.056;2023-06-19T09:52:51;4.30;;;3.70;;
62687;SDS011;48752;51.056;17.056;2023-06-19T09:55:16;3.97;;;3.63;;
62687;SDS011;48752;51.056;17.056;2023-06-19T09:57:44;5.75;;;3.45;;
62687;SDS011;48752;51.056;17.056;2023-06-19T10:00:11;3.95;;;3.63;;
62687;SDS011;48752;51.056;17.056;2023-06-19T10:02:44;4.25;;;3.42;;
62687;SDS011;48752;51.056;17.056;2023-06-19T10:05:10;3.83;;;3.50;;
62687;SDS011;48752;51.056;17.056;2023-06-19T10:07:41;7.55;;;3.53;;
62687;SDS011;48752;51.056;17.056;2023-06-19T10:10:09;4.50;;;3.92;;
62687;SDS011;48752;51.056;17.056;2023-06-19T10:12:45;4.95;;;4.10;;
62687;SDS011;48752;51.056;17.056;2023-06-19T10:17:43;6.03;;;4.13;;
62687;SDS011;48752;51.056;17.056;2023-06-19T10:20:18;4.88;;;4.47;;
62687;SDS011;48752;51.056;17.056;2023-06-19T10:23:04;5.57;;;4.60;;
62687;SDS011;48752;51.056;17.056;2023-06-19T10:25:31;4.60;;;4.20;;
62687;SDS011;48752;51.056;17.056;2023-06-19T10:28:01;4.18;;;3.78;;
62687;SDS011;48752;51.056;17.056;2023-06-19T10:30:28;4.65;;;4.10;;
62687;SDS011;48752;51.056;17.056;2023-06-19T10:32:54;4.20;;;3.90;;
62687;SDS011;48752;51.056;17.056;2023-06-19T10:35:20;4.90;;;4.40;;
62687;SDS011;48752;51.056;17.056;2023-06-19T10:37:46;4.45;;;4.05;;
62687;SDS011;48752;51.056;17.056;2023-06-19T10:40:12;4.25;;;3.95;;
62687;SDS011;48752;51.056;17.056;2023-06-19T10:42:39;4.10;;;3.80;;
62687;SDS011;48752;51.056;17.056;2023-06-19T10:45:06;4.25;;;3.85;;
62687;SDS011;48752;51.056;17.056;2023-06-19T10:47:32;4.32;;;3.92;;
62687;SDS011;48752;51.056;17.056;2023-06-19T10:49:57;5.32;;;4.28;;
62687;SDS011;48752;51.056;17.056;2023-06-19T10:52:22;4.73;;;3.93;;
62687;SDS011;48752;51.056;17.056;2023-06-19T10:54:57;4.32;;;3.92;;
62687;SDS011;48752;51.056;17.056;2023-06-19T10:57:29;5.75;;;4.20;;
62687;SDS011;48752;51.056;17.056;2023-06-19T10:59:54;4.75;;;3.70;;
62687;SDS011;48752;51.056;17.056;2023-06-19T11:02:38;3.88;;;3.50;;
62687;SDS011;48752;51.056;17.056;2023-06-19T11:05:05;5.00;;;3.85;;
62687;SDS011;48752;51.056;17.056;2023-06-19T11:07:30;4.88;;;4.05;;
62687;SDS011;48752;51.056;17.056;2023-06-19T11:09:56;4.28;;;3.72;;
62687;SDS011;48752;51.056;17.056;2023-06-19T11:12:22;5.03;;;4.20;;
62687;SDS011;48752;51.056;17.056;2023-06-19T11:14:50;4.53;;;4.13;;
62687;SDS011;48752;51.056;17.056;2023-06-19T11:17:16;4.65;;;4.25;;
62687;SDS011;48752;51.056;17.056;2023-06-19T11:19:43;4.38;;;3.97;;
62687;SDS011;48752;51.056;17.056;2023-06-19T11:22:09;6.45;;;4.45;;
62687;SDS011;48752;51.056;17.056;2023-06-19T11:24:35;4.15;;;3.78;;
62687;SDS011;48752;51.056;17.056;2023-06-19T11:27:00;6.15;;;3.92;;
62687;SDS011;48752;51.056;17.056;2023-06-19T11:29:26;5.03;;;3.75;;
62687;SDS011;48752;51.056;17.056;2023-06-19T11:31:54;5.75;;;4.00;;
62687;SDS011;48752;51.056;17.056;2023-06-19T11:34:32;4.60;;;4.20;;
62687;SDS011;48752;51.056;17.056;2023-06-19T11:36:58;4.90;;;3.90;;
62687;SDS011;48752;51.056;17.056;2023-06-19T11:39:23;4.13;;;3.73;;
62687;SDS011;48752;51.056;17.056;2023-06-19T11:41:50;4.78;;;3.78;;
62687;SDS011;48752;51.056;17.056;2023-06-19T11:44:16;4.60;;;4.20;;
62687;SDS011;48752;51.056;17.056;2023-06-19T11:46:41;5.97;;;3.67;;
62687;SDS011;48752;51.056;17.056;2023-06-19T11:49:11;4.88;;;4.40;;
62687;SDS011;48752;51.056;17.056;2023-06-19T11:51:37;4.63;;;4.20;;
62687;SDS011;48752;51.056;17.056;2023-06-19T11:54:04;5.03;;;4.10;;
62687;SDS011;48752;51.056;17.056;2023-06-19T11:56:30;5.85;;;4.03;;
62687;SDS011;48752;51.056;17.056;2023-06-19T11:58:55;6.37;;;4.63;;
62687;SDS011;48752;51.056;17.056;2023-06-19T12:01:21;5.13;;;4.20;;
62687;SDS011;48752;51.056;17.056;2023-06-19T12:03:49;4.68;;;4.28;;
62687;SDS011;48752;51.056;17.056;2023-06-19T12:06:15;5.00;;;4.55;;
62687;SDS011;48752;51.056;17.056;2023-06-19T12:08:41;5.95;;;4.60;;
62687;SDS011;48752;51.056;17.056;2023-06-19T12:11:07;6.30;;;4.57;;
62687;SDS011;48752;51.056;17.056;2023-06-19T12:13:36;4.68;;;4.20;;
62687;SDS011;48752;51.056;17.056;2023-06-19T12:16:02;5.20;;;4.70;;
62687;SDS011;48752;51.056;17.056;2023-06-19T12:18:28;7.50;;;4.97;;
62687;SDS011;48752;51.056;17.056;2023-06-19T12:20:54;5.33;;;4.90;;
62687;SDS011;48752;51.056;17.056;2023-06-19T12:23:19;4.70;;;4.27;;
62687;SDS011;48752;51.056;17.056;2023-06-19T12:25:46;5.85;;;4.70;;
62687;SDS011;48752;51.056;17.056;2023-06-19T12:28:11;5.60;;;5.07;;
62687;SDS011;48752;51.056;17.056;2023-06-19T12:30:41;5.93;;;4.27;;
62687;SDS011;48752;51.056;17.056;2023-06-19T12:33:07;7.75;;;4.82;;
62687;SDS011;48752;51.056;17.056;2023-06-19T12:35:32;7.17;;;5.40;;
62687;SDS011;48752;51.056;17.056;2023-06-19T12:37:57;6.45;;;4.78;;
62687;SDS011;48752;51.056;17.056;2023-06-19T12:40:23;5.20;;;4.70;;
62687;SDS011;48752;51.056;17.056;2023-06-19T12:42:51;8.43;;;5.37;;
62687;SDS011;48752;51.056;17.056;2023-06-19T12:45:28;10.40;;;4.70;;
62687;SDS011;48752;51.056;17.056;2023-06-19T12:47:55;5.20;;;4.70;;
62687;SDS011;48752;51.056;17.056;2023-06-19T12:50:20;5.17;;;4.57;;
62687;SDS011;48752;51.056;17.056;2023-06-19T12:52:46;5.88;;;4.55;;
62687;SDS011;48752;51.056;17.056;2023-06-19T12:55:11;5.53;;;4.90;;
62687;SDS011;48752;51.056;17.056;2023-06-19T12:57:36;6.00;;;4.50;;
62687;SDS011;48752;51.056;17.056;2023-06-19T13:00:02;7.72;;;4.88;;
62687;SDS011;48752;51.056;17.056;2023-06-19T13:02:31;5.97;;;4.40;;
62687;SDS011;48752;51.056;17.056;2023-06-19T13:04:57;9.27;;;5.07;;
62687;SDS011;48752;51.056;17.056;2023-06-19T13:07:23;7.28;;;5.22;;
62687;SDS011;48752;51.056;17.056;2023-06-19T13:09:48;6.57;;;4.95;;
62687;SDS011;48752;51.056;17.056;2023-06-19T13:12:19;5.23;;;4.60;;
62687;SDS011;48752;51.056;17.056;2023-06-19T13:14:44;5.38;;;4.72;;
62687;SDS011;48752;51.056;17.056;2023-06-19T13:17:16;6.70;;;4.67;;
62687;SDS011;48752;51.056;17.056;2023-06-19T13:19:42;6.13;;;4.93;;
62687;SDS011;48752;51.056;17.056;2023-06-19T13:22:08;5.18;;;4.78;;
62687;SDS011;48752;51.056;17.056;2023-06-19T13:24:34;6.97;;;4.70;;
62687;SDS011;48752;51.056;17.056;2023-06-19T13:27:02;5.63;;;5.10;;
62687;SDS011;48752;51.056;17.056;2023-06-19T13:29:29;5.43;;;4.90;;
62687;SDS011;48752;51.056;17.056;2023-06-19T13:31:55;5.90;;;4.47;;
62687;SDS011;48752;51.056;17.056;2023-06-19T13:34:21;7.05;;;4.65;;
62687;SDS011;48752;51.056;17.056;2023-06-19T13:36:49;5.15;;;4.75;;
62687;SDS011;48752;51.056;17.056;2023-06-19T13:39:16;5.00;;;4.47;;
62687;SDS011;48752;51.056;17.056;2023-06-19T13:41:45;5.50;;;5.00;;
62687;SDS011;48752;51.056;17.056;2023-06-19T13:44:10;8.05;;;5.15;;
62687;SDS011;48752;51.056;17.056;2023-06-19T13:46:37;5.75;;;5.10;;
62687;SDS011;48752;51.056;17.056;2023-06-19T13:49:03;5.75;;;5.20;;
62687;SDS011;48752;51.056;17.056;2023-06-19T13:51:29;8.23;;;5.20;;
62687;SDS011;48752;51.056;17.056;2023-06-19T13:53:54;6.07;;;5.35;;
62687;SDS011;48752;51.056;17.056;2023-06-19T13:56:20;6.07;;;4.90;;
62687;SDS011;48752;51.056;17.056;2023-06-19T13:58:48;5.32;;;4.65;;
62687;SDS011;48752;51.056;17.056;2023-06-19T14:01:13;5.25;;;4.75;;
62687;SDS011;48752;51.056;17.056;2023-06-19T14:03:39;6.85;;;4.82;;
62687;SDS011;48752;51.056;17.056;2023-06-19T14:06:06;6.13;;;5.40;;
62687;SDS011;48752;51.056;17.056;2023-06-19T14:08:40;6.47;;;5.57;;
62687;SDS011;48752;51.056;17.056;2023-06-19T14:11:06;6.35;;;5.00;;
62687;SDS011;48752;51.056;17.056;2023-06-19T14:13:33;6.20;;;4.80;;
62687;SDS011;48752;51.056;17.056;2023-06-19T14:16:00;7.47;;;5.00;;
62687;SDS011;48752;51.056;17.056;2023-06-19T14:18:39;5.73;;;5.23;;
62687;SDS011;48752;51.056;17.056;2023-06-19T14:21:05;7.00;;;5.03;;
62687;SDS011;48752;51.056;17.056;2023-06-19T14:23:32;5.20;;;4.68;;
62687;SDS011;48752;51.056;17.056;2023-06-19T14:26:00;5.95;;;5.07;;
62687;SDS011;48752;51.056;17.056;2023-06-19T14:28:25;7.03;;;5.18;;
62687;SDS011;48752;51.056;17.056;2023-06-19T14:30:50;5.78;;;4.82;;
62687;SDS011;48752;51.056;17.056;2023-06-19T14:33:16;6.03;;;5.33;;
62687;SDS011;48752;51.056;17.056;2023-06-19T14:35:41;11.63;;;5.33;;
62687;SDS011;48752;51.056;17.056;2023-06-19T14:38:12;10.80;;;5.47;;